Aérodrome :
LOGIN :

S'inscrire | Disclaimer

   EN    FR    IT 

 










Légende :    VFR   VFR Marginal   IFR   IFR Intensif   IFR Très Intensif
Visi : 
Plafond : 
>= 8 km
>= 3000ft
5 à 8 km
1000 à 3000 ft
1500m à 5 km
500 à 1000 ft
800 à 1500m
200 à 500 ft
< 800m
< 200 ft
Symboles :   Orages  Brouillard  Fortes neiges  Fortes précipitations  Vent > 20 kt
SIGMETs :   Divers  Orages  Givrage  Turbulence  Onde Orograph.  Cendres Volcan.







- Altitude de l'aérodrome : 1504 ft
- Code IATA : PNA


LEPP - Noain Pamplona

DERNIER METAR :
  • 172130Z 00000KT CAVOK 14/11 Q1015

METARs EXPIRÉS :
  • 172100Z VRB02KT CAVOK 14/11 Q1015
  • 172030Z VRB01KT CAVOK 13/10 Q1015
  • 172000Z 00000KT CAVOK 14/10 Q1014
  • 171930Z 27001KT CAVOK 15/10 Q1014
  • 171900Z VRB02KT CAVOK 15/10 Q1014

TAF TAF LEPP
Valide du 17 à 21h jusqu'au 18 à 21h UTC


172000Z 1721/1821 VRB04KT 9999 FEW030 TX21/1815Z TN09/1806Z
PROB40
TEMPO 1803/1809 3000 BR BKN010
PROB30
TEMPO 1803/1807 0800 BCFG BKN002
BECMG 1809/1812 36010KT
PROB40
TEMPO 1811/1816 36015G25KT
Pas de NOTAMs connus pour ce terrain.



MET'MAP, la Météo Aéronautique d'un coup d'oeil ! - Copyright ORBIFLY Décembre 2007 - Disclaimer

ORBIFLY MET'MAP TEAM :

Programmation & Développement : Alexandra Zaïnal
Conception & Développement : Baudouin d'Aumeries
Co-Programmation & Développement : Marc-Olivier Méhu
Soutien technique & logistique : Manuel Goepfert

Contact : metmap@orbifly.com




SOURCES & CREDITS :

   NOAA